YPTN/KTR METAR and TAF weather

Enter ICAO airport designator
Station Type Date Time Source
YPTN METAR 2020/01/28 05:00 UTC NOAA

YPTN 280500Z AUTO 30011KT 9999 // SCT047 SCT125 37/24 Q1003


Station Type Date Time Source
YPTN Decoded METAR 2020/01/28 05:00 UTC NOAA

Tindal / Katherine, Australia (YPTN) 14-26S 132-16E 109M
Jan 28, 2020 - 12:00 AM EST / 2020.01.28 0500 UTC
Wind: from the WNW (300 degrees) at 13 MPH (11 KT):0
Visibility: greater than 7 mile(s):0
Sky conditions: partly cloudy
Temperature: 98 F (37 C)
Heat index: 110.3 F (43.5 C):1
Dew Point: 75 F (24 C)
Relative Humidity: 47%
Pressure (altimeter): 29.62 in. Hg (1003 hPa)
ob: YPTN 280500Z AUTO 30011KT 9999 // SCT047 SCT125 37/24 Q1003
cycle: 5

Station Type Date Time Source
YPTN TAF 2020/01/27 18:03 UTC NOAA

TAF YPTN 271655Z 2718/2818 30005KT 9999 SCT018
FM272300 30010KT 9999 FEW050
TEMPO 2720/2723 9999 BKN010 PROB30
TEMPO 2807/2812 VRB25G40KT 1000 TSRA BKN010 SCT050CB

Example: see airport list